sensor_id;sensor_type;location;lat;lon;timestamp;temperature;humidity
20319;DHT22;10317;47.254;11.314;2023-12-28T00:01:56;-1.60;99.90
20319;DHT22;10317;47.254;11.314;2023-12-28T00:04:22;-1.60;99.90
20319;DHT22;10317;47.254;11.314;2023-12-28T00:06:47;-1.60;99.90
20319;DHT22;10317;47.254;11.314;2023-12-28T00:09:13;-1.60;99.90
20319;DHT22;10317;47.254;11.314;2023-12-28T00:11:39;-1.70;99.90
20319;DHT22;10317;47.254;11.314;2023-12-28T00:14:05;-1.70;99.90
20319;DHT22;10317;47.254;11.314;2023-12-28T00:16:31;-1.70;99.90
20319;DHT22;10317;47.254;11.314;2023-12-28T00:19:02;-1.70;99.90
20319;DHT22;10317;47.254;11.314;2023-12-28T00:21:29;-1.70;99.90
20319;DHT22;10317;47.254;11.314;2023-12-28T00:23:55;-1.70;99.90
20319;DHT22;10317;47.254;11.314;2023-12-28T00:26:21;-1.70;99.90
20319;DHT22;10317;47.254;11.314;2023-12-28T00:28:47;-1.70;99.90
20319;DHT22;10317;47.254;11.314;2023-12-28T00:31:13;-1.70;99.90
20319;DHT22;10317;47.254;11.314;2023-12-28T00:33:39;-1.70;99.90
20319;DHT22;10317;47.254;11.314;2023-12-28T00:36:05;-1.70;99.90
20319;DHT22;10317;47.254;11.314;2023-12-28T00:38:30;-1.80;99.90
20319;DHT22;10317;47.254;11.314;2023-12-28T00:40:57;-1.80;99.90
20319;DHT22;10317;47.254;11.314;2023-12-28T00:43:23;-1.80;99.90
20319;DHT22;10317;47.254;11.314;2023-12-28T00:45:49;-1.80;99.90
20319;DHT22;10317;47.254;11.314;2023-12-28T00:48:14;-1.90;99.90
20319;DHT22;10317;47.254;11.314;2023-12-28T00:50:40;-1.90;99.90
20319;DHT22;10317;47.254;11.314;2023-12-28T00:53:06;-1.90;99.90
20319;DHT22;10317;47.254;11.314;2023-12-28T00:55:31;-1.90;99.90
20319;DHT22;10317;47.254;11.314;2023-12-28T00:57:57;-1.90;99.90
20319;DHT22;10317;47.254;11.314;2023-12-28T01:00:23;-1.90;99.90
20319;DHT22;10317;47.254;11.314;2023-12-28T01:02:48;-1.90;99.90
20319;DHT22;10317;47.254;11.314;2023-12-28T01:05:15;-1.90;99.90
20319;DHT22;10317;47.254;11.314;2023-12-28T01:07:41;-1.90;99.90
20319;DHT22;10317;47.254;11.314;2023-12-28T01:10:07;-1.90;99.90
20319;DHT22;10317;47.254;11.314;2023-12-28T01:12:33;-1.90;99.90
20319;DHT22;10317;47.254;11.314;2023-12-28T01:14:59;-1.90;99.90
20319;DHT22;10317;47.254;11.314;2023-12-28T01:17:24;-1.90;99.90
20319;DHT22;10317;47.254;11.314;2023-12-28T01:19:50;-2.00;99.90
20319;DHT22;10317;47.254;11.314;2023-12-28T01:22:16;-2.00;99.90
20319;DHT22;10317;47.254;11.314;2023-12-28T01:24:41;-2.00;99.90
20319;DHT22;10317;47.254;11.314;2023-12-28T01:27:07;-2.00;99.90
20319;DHT22;10317;47.254;11.314;2023-12-28T01:29:32;-2.00;99.90
20319;DHT22;10317;47.254;11.314;2023-12-28T01:31:59;-2.10;99.90
20319;DHT22;10317;47.254;11.314;2023-12-28T01:34:25;-2.10;99.90
20319;DHT22;10317;47.254;11.314;2023-12-28T01:36:51;-2.10;99.90
20319;DHT22;10317;47.254;11.314;2023-12-28T01:39:16;-2.00;99.90
20319;DHT22;10317;47.254;11.314;2023-12-28T01:41:44;-2.10;99.90
20319;DHT22;10317;47.254;11.314;2023-12-28T01:44:11;-2.10;99.90
20319;DHT22;10317;47.254;11.314;2023-12-28T01:46:37;-2.10;99.90
20319;DHT22;10317;47.254;11.314;2023-12-28T01:49:03;-2.10;99.90
20319;DHT22;10317;47.254;11.314;2023-12-28T01:51:30;-2.10;99.90
20319;DHT22;10317;47.254;11.314;2023-12-28T01:53:57;-2.10;99.90
20319;DHT22;10317;47.254;11.314;2023-12-28T01:56:23;-2.10;99.90
20319;DHT22;10317;47.254;11.314;2023-12-28T01:58:50;-2.10;99.90
20319;DHT22;10317;47.254;11.314;2023-12-28T02:01:18;-2.10;99.90
20319;DHT22;10317;47.254;11.314;2023-12-28T02:03:45;-2.10;99.90
20319;DHT22;10317;47.254;11.314;2023-12-28T02:06:10;-2.10;99.90
20319;DHT22;10317;47.254;11.314;2023-12-28T02:08:37;-2.10;99.90
20319;DHT22;10317;47.254;11.314;2023-12-28T02:11:03;-2.10;99.90
20319;DHT22;10317;47.254;11.314;2023-12-28T02:13:29;-2.10;99.90
20319;DHT22;10317;47.254;11.314;2023-12-28T02:16:02;-2.20;99.90
20319;DHT22;10317;47.254;11.314;2023-12-28T02:18:42;-2.20;99.90
20319;DHT22;10317;47.254;11.314;2023-12-28T02:21:08;-2.20;99.90
20319;DHT22;10317;47.254;11.314;2023-12-28T02:23:35;-2.10;99.90
20319;DHT22;10317;47.254;11.314;2023-12-28T02:26:01;-2.10;99.90
20319;DHT22;10317;47.254;11.314;2023-12-28T02:28:26;-2.20;99.90
20319;DHT22;10317;47.254;11.314;2023-12-28T02:30:52;-2.20;99.90
20319;DHT22;10317;47.254;11.314;2023-12-28T02:33:32;-2.20;99.90
20319;DHT22;10317;47.254;11.314;2023-12-28T02:36:03;-2.20;99.90
20319;DHT22;10317;47.254;11.314;2023-12-28T02:38:32;-2.20;99.90
20319;DHT22;10317;47.254;11.314;2023-12-28T02:40:58;-2.20;99.90
20319;DHT22;10317;47.254;11.314;2023-12-28T02:43:25;-2.20;99.90
20319;DHT22;10317;47.254;11.314;2023-12-28T02:45:50;-2.10;99.90
20319;DHT22;10317;47.254;11.314;2023-12-28T02:48:16;-2.10;99.90
20319;DHT22;10317;47.254;11.314;2023-12-28T02:50:41;-2.10;99.90
20319;DHT22;10317;47.254;11.314;2023-12-28T02:53:07;-2.20;99.90
20319;DHT22;10317;47.254;11.314;2023-12-28T02:55:33;-2.20;99.90
20319;DHT22;10317;47.254;11.314;2023-12-28T02:57:59;-2.20;99.90
20319;DHT22;10317;47.254;11.314;2023-12-28T03:00:25;-2.30;99.90
20319;DHT22;10317;47.254;11.314;2023-12-28T03:02:50;-2.20;99.90
20319;DHT22;10317;47.254;11.314;2023-12-28T03:05:16;-2.30;99.90
20319;DHT22;10317;47.254;11.314;2023-12-28T03:07:42;-2.30;99.90
20319;DHT22;10317;47.254;11.314;2023-12-28T03:10:08;-2.20;99.90
20319;DHT22;10317;47.254;11.314;2023-12-28T03:12:35;-2.30;99.90
20319;DHT22;10317;47.254;11.314;2023-12-28T03:15:00;-2.20;99.90
20319;DHT22;10317;47.254;11.314;2023-12-28T03:17:26;-2.10;99.90
20319;DHT22;10317;47.254;11.314;2023-12-28T03:19:52;-2.20;99.90
20319;DHT22;10317;47.254;11.314;2023-12-28T03:22:17;-2.20;99.90
20319;DHT22;10317;47.254;11.314;2023-12-28T03:24:43;-2.20;99.90
20319;DHT22;10317;47.254;11.314;2023-12-28T03:27:09;-2.20;99.90
20319;DHT22;10317;47.254;11.314;2023-12-28T03:29:35;-2.20;99.90
20319;DHT22;10317;47.254;11.314;2023-12-28T03:32:00;-2.20;99.90
20319;DHT22;10317;47.254;11.314;2023-12-28T03:34:27;-2.10;99.90
20319;DHT22;10317;47.254;11.314;2023-12-28T03:36:54;-2.20;99.90
20319;DHT22;10317;47.254;11.314;2023-12-28T03:39:20;-2.20;99.90
20319;DHT22;10317;47.254;11.314;2023-12-28T03:41:47;-2.20;99.90
20319;DHT22;10317;47.254;11.314;2023-12-28T03:44:13;-2.20;99.90
20319;DHT22;10317;47.254;11.314;2023-12-28T03:46:38;-2.20;99.90
20319;DHT22;10317;47.254;11.314;2023-12-28T03:49:04;-2.20;99.90
20319;DHT22;10317;47.254;11.314;2023-12-28T03:51:30;-2.10;99.90
20319;DHT22;10317;47.254;11.314;2023-12-28T03:53:55;-2.10;99.90
20319;DHT22;10317;47.254;11.314;2023-12-28T03:56:22;-2.10;99.90
20319;DHT22;10317;47.254;11.314;2023-12-28T03:58:49;-2.10;99.90
20319;DHT22;10317;47.254;11.314;2023-12-28T04:01:15;-2.00;99.90
20319;DHT22;10317;47.254;11.314;2023-12-28T04:03:41;-1.90;99.90
20319;DHT22;10317;47.254;11.314;2023-12-28T04:06:07;-1.90;99.90
20319;DHT22;10317;47.254;11.314;2023-12-28T04:08:32;-1.80;99.90
20319;DHT22;10317;47.254;11.314;2023-12-28T04:10:58;-1.80;99.90
20319;DHT22;10317;47.254;11.314;2023-12-28T04:13:24;-1.80;99.90
20319;DHT22;10317;47.254;11.314;2023-12-28T04:15:49;-1.90;99.90
20319;DHT22;10317;47.254;11.314;2023-12-28T04:18:15;-1.90;99.90
20319;DHT22;10317;47.254;11.314;2023-12-28T04:20:42;-2.00;99.90
20319;DHT22;10317;47.254;11.314;2023-12-28T04:23:10;-2.10;99.90
20319;DHT22;10317;47.254;11.314;2023-12-28T04:25:35;-2.10;99.90
20319;DHT22;10317;47.254;11.314;2023-12-28T04:28:01;-2.20;99.90
20319;DHT22;10317;47.254;11.314;2023-12-28T04:30:27;-2.20;99.90
20319;DHT22;10317;47.254;11.314;2023-12-28T04:32:53;-2.20;99.90
20319;DHT22;10317;47.254;11.314;2023-12-28T04:35:19;-2.30;99.90
20319;DHT22;10317;47.254;11.314;2023-12-28T04:37:45;-2.30;99.90
20319;DHT22;10317;47.254;11.314;2023-12-28T04:40:11;-2.30;99.90
20319;DHT22;10317;47.254;11.314;2023-12-28T04:42:36;-2.30;99.90
20319;DHT22;10317;47.254;11.314;2023-12-28T04:45:02;-2.30;99.90
20319;DHT22;10317;47.254;11.314;2023-12-28T04:47:28;-2.30;99.90
20319;DHT22;10317;47.254;11.314;2023-12-28T04:49:54;-2.30;99.90
20319;DHT22;10317;47.254;11.314;2023-12-28T04:52:19;-2.30;99.90
20319;DHT22;10317;47.254;11.314;2023-12-28T04:54:45;-2.30;99.90
20319;DHT22;10317;47.254;11.314;2023-12-28T04:57:11;-2.40;99.90
20319;DHT22;10317;47.254;11.314;2023-12-28T04:59:40;-2.30;99.90
20319;DHT22;10317;47.254;11.314;2023-12-28T05:02:06;-2.40;99.90
20319;DHT22;10317;47.254;11.314;2023-12-28T05:04:32;-2.30;99.90
20319;DHT22;10317;47.254;11.314;2023-12-28T05:06:57;-2.40;99.90
20319;DHT22;10317;47.254;11.314;2023-12-28T05:09:23;-2.40;99.90
20319;DHT22;10317;47.254;11.314;2023-12-28T05:11:49;-2.40;99.90
20319;DHT22;10317;47.254;11.314;2023-12-28T05:14:14;-2.50;99.90
20319;DHT22;10317;47.254;11.314;2023-12-28T05:16:40;-2.50;99.90
20319;DHT22;10317;47.254;11.314;2023-12-28T05:19:06;-2.50;99.90
20319;DHT22;10317;47.254;11.314;2023-12-28T05:21:31;-2.50;99.90
20319;DHT22;10317;47.254;11.314;2023-12-28T05:23:57;-2.50;99.90
20319;DHT22;10317;47.254;11.314;2023-12-28T05:26:23;-2.60;99.90
20319;DHT22;10317;47.254;11.314;2023-12-28T05:28:49;-2.60;99.90
20319;DHT22;10317;47.254;11.314;2023-12-28T05:31:15;-2.60;99.90
20319;DHT22;10317;47.254;11.314;2023-12-28T05:33:40;-2.60;99.90
20319;DHT22;10317;47.254;11.314;2023-12-28T05:36:06;-2.60;99.90
20319;DHT22;10317;47.254;11.314;2023-12-28T05:38:32;-2.60;99.90
20319;DHT22;10317;47.254;11.314;2023-12-28T05:40:59;-2.60;99.90
20319;DHT22;10317;47.254;11.314;2023-12-28T05:43:24;-2.60;99.90
20319;DHT22;10317;47.254;11.314;2023-12-28T05:45:50;-2.60;99.90
20319;DHT22;10317;47.254;11.314;2023-12-28T05:48:16;-2.50;99.90
20319;DHT22;10317;47.254;11.314;2023-12-28T05:50:41;-2.50;99.90
20319;DHT22;10317;47.254;11.314;2023-12-28T05:53:07;-2.50;99.90
20319;DHT22;10317;47.254;11.314;2023-12-28T05:55:37;-2.50;99.90
20319;DHT22;10317;47.254;11.314;2023-12-28T05:58:02;-2.50;99.90
20319;DHT22;10317;47.254;11.314;2023-12-28T06:00:28;-2.50;99.90
20319;DHT22;10317;47.254;11.314;2023-12-28T06:02:54;-2.50;99.90
20319;DHT22;10317;47.254;11.314;2023-12-28T06:05:20;-2.60;99.90
20319;DHT22;10317;47.254;11.314;2023-12-28T06:07:45;-2.60;99.90
20319;DHT22;10317;47.254;11.314;2023-12-28T06:10:11;-2.60;99.90
20319;DHT22;10317;47.254;11.314;2023-12-28T06:12:36;-2.60;99.90
20319;DHT22;10317;47.254;11.314;2023-12-28T06:15:02;-2.60;99.90
20319;DHT22;10317;47.254;11.314;2023-12-28T06:17:28;-2.60;99.90
20319;DHT22;10317;47.254;11.314;2023-12-28T06:19:54;-2.70;99.90
20319;DHT22;10317;47.254;11.314;2023-12-28T06:22:19;-2.70;99.90
20319;DHT22;10317;47.254;11.314;2023-12-28T06:24:45;-2.70;99.90
20319;DHT22;10317;47.254;11.314;2023-12-28T06:27:11;-2.70;99.90
20319;DHT22;10317;47.254;11.314;2023-12-28T06:29:37;-2.70;99.90
20319;DHT22;10317;47.254;11.314;2023-12-28T06:32:03;-2.70;99.90
20319;DHT22;10317;47.254;11.314;2023-12-28T06:34:28;-2.60;99.90
20319;DHT22;10317;47.254;11.314;2023-12-28T06:36:54;-2.60;99.90
20319;DHT22;10317;47.254;11.314;2023-12-28T06:39:20;-2.50;99.90
20319;DHT22;10317;47.254;11.314;2023-12-28T06:41:48;-2.60;99.90
20319;DHT22;10317;47.254;11.314;2023-12-28T06:44:15;-2.60;99.90
20319;DHT22;10317;47.254;11.314;2023-12-28T06:46:41;-2.60;99.90
20319;DHT22;10317;47.254;11.314;2023-12-28T06:49:06;-2.60;99.90
20319;DHT22;10317;47.254;11.314;2023-12-28T06:51:32;-2.70;99.90
20319;DHT22;10317;47.254;11.314;2023-12-28T06:53:58;-2.70;99.90
20319;DHT22;10317;47.254;11.314;2023-12-28T06:56:25;-2.70;99.90
20319;DHT22;10317;47.254;11.314;2023-12-28T06:58:50;-2.70;99.90
20319;DHT22;10317;47.254;11.314;2023-12-28T07:01:16;-2.80;99.90
20319;DHT22;10317;47.254;11.314;2023-12-28T07:03:42;-2.80;99.90
20319;DHT22;10317;47.254;11.314;2023-12-28T07:06:08;-2.70;99.90
20319;DHT22;10317;47.254;11.314;2023-12-28T07:08:34;-2.70;99.90
20319;DHT22;10317;47.254;11.314;2023-12-28T07:10:59;-2.70;99.90
20319;DHT22;10317;47.254;11.314;2023-12-28T07:13:26;-2.60;99.90
20319;DHT22;10317;47.254;11.314;2023-12-28T07:15:51;-2.70;99.90
20319;DHT22;10317;47.254;11.314;2023-12-28T07:18:17;-2.70;99.90
20319;DHT22;10317;47.254;11.314;2023-12-28T07:20:43;-2.60;99.90
20319;DHT22;10317;47.254;11.314;2023-12-28T07:23:08;-2.60;99.90
20319;DHT22;10317;47.254;11.314;2023-12-28T07:25:34;-2.60;99.90
20319;DHT22;10317;47.254;11.314;2023-12-28T07:28:00;-2.70;99.90
20319;DHT22;10317;47.254;11.314;2023-12-28T07:30:26;-2.60;99.90
20319;DHT22;10317;47.254;11.314;2023-12-28T07:32:52;-2.60;99.90
20319;DHT22;10317;47.254;11.314;2023-12-28T07:35:18;-2.60;99.90
20319;DHT22;10317;47.254;11.314;2023-12-28T07:37:43;-2.60;99.90
20319;DHT22;10317;47.254;11.314;2023-12-28T07:40:12;-2.60;99.90
20319;DHT22;10317;47.254;11.314;2023-12-28T07:42:37;-2.50;99.90
20319;DHT22;10317;47.254;11.314;2023-12-28T07:45:03;-2.50;99.90
20319;DHT22;10317;47.254;11.314;2023-12-28T07:47:29;-2.60;99.90
20319;DHT22;10317;47.254;11.314;2023-12-28T07:49:55;-2.60;99.90
20319;DHT22;10317;47.254;11.314;2023-12-28T07:52:21;-2.60;99.90
20319;DHT22;10317;47.254;11.314;2023-12-28T07:54:46;-2.50;99.90
20319;DHT22;10317;47.254;11.314;2023-12-28T07:57:12;-2.50;99.90
20319;DHT22;10317;47.254;11.314;2023-12-28T07:59:38;-2.50;99.90
20319;DHT22;10317;47.254;11.314;2023-12-28T08:02:04;-2.50;99.90
20319;DHT22;10317;47.254;11.314;2023-12-28T08:04:29;-2.40;99.90
20319;DHT22;10317;47.254;11.314;2023-12-28T08:06:55;-2.40;99.90
20319;DHT22;10317;47.254;11.314;2023-12-28T08:09:21;-2.40;99.90
20319;DHT22;10317;47.254;11.314;2023-12-28T08:11:46;-2.30;99.90
20319;DHT22;10317;47.254;11.314;2023-12-28T08:14:12;-2.20;99.90
20319;DHT22;10317;47.254;11.314;2023-12-28T08:16:38;-2.20;99.90
20319;DHT22;10317;47.254;11.314;2023-12-28T08:19:03;-2.20;99.90
20319;DHT22;10317;47.254;11.314;2023-12-28T08:21:29;-2.20;99.90
20319;DHT22;10317;47.254;11.314;2023-12-28T08:23:56;-2.20;99.90
20319;DHT22;10317;47.254;11.314;2023-12-28T08:26:22;-2.20;99.90
20319;DHT22;10317;47.254;11.314;2023-12-28T08:28:48;-2.20;99.90
20319;DHT22;10317;47.254;11.314;2023-12-28T08:31:13;-2.20;99.90
20319;DHT22;10317;47.254;11.314;2023-12-28T08:33:39;-2.20;99.90
20319;DHT22;10317;47.254;11.314;2023-12-28T08:36:08;-2.20;99.90
20319;DHT22;10317;47.254;11.314;2023-12-28T08:38:35;-2.10;99.90
20319;DHT22;10317;47.254;11.314;2023-12-28T08:41:00;-2.10;99.90
20319;DHT22;10317;47.254;11.314;2023-12-28T08:43:29;-2.00;99.90
20319;DHT22;10317;47.254;11.314;2023-12-28T08:45:54;-2.00;99.90
20319;DHT22;10317;47.254;11.314;2023-12-28T08:48:20;-1.90;99.90
20319;DHT22;10317;47.254;11.314;2023-12-28T08:50:47;-1.90;99.90
20319;DHT22;10317;47.254;11.314;2023-12-28T08:53:13;-1.90;99.90
20319;DHT22;10317;47.254;11.314;2023-12-28T08:55:39;-1.90;99.90
20319;DHT22;10317;47.254;11.314;2023-12-28T08:58:04;-1.80;99.90
20319;DHT22;10317;47.254;11.314;2023-12-28T09:00:30;-1.80;99.90
20319;DHT22;10317;47.254;11.314;2023-12-28T09:02:55;-1.70;99.90
20319;DHT22;10317;47.254;11.314;2023-12-28T09:05:21;-1.70;99.90
20319;DHT22;10317;47.254;11.314;2023-12-28T09:07:47;-1.60;99.90
20319;DHT22;10317;47.254;11.314;2023-12-28T09:10:13;-1.60;99.90
20319;DHT22;10317;47.254;11.314;2023-12-28T09:12:40;-1.50;99.90
20319;DHT22;10317;47.254;11.314;2023-12-28T09:15:07;-1.40;99.90
20319;DHT22;10317;47.254;11.314;2023-12-28T09:17:33;-1.20;99.90
20319;DHT22;10317;47.254;11.314;2023-12-28T09:19:59;-1.00;99.90
20319;DHT22;10317;47.254;11.314;2023-12-28T09:22:26;-0.80;99.90
20319;DHT22;10317;47.254;11.314;2023-12-28T09:24:52;-0.60;99.90
20319;DHT22;10317;47.254;11.314;2023-12-28T09:27:18;-0.40;99.90
20319;DHT22;10317;47.254;11.314;2023-12-28T09:29:43;-0.10;99.90
20319;DHT22;10317;47.254;11.314;2023-12-28T09:32:09;0.00;99.90
20319;DHT22;10317;47.254;11.314;2023-12-28T09:34:35;0.20;99.90
20319;DHT22;10317;47.254;11.314;2023-12-28T09:37:00;0.30;99.90
20319;DHT22;10317;47.254;11.314;2023-12-28T09:39:26;0.40;99.90
20319;DHT22;10317;47.254;11.314;2023-12-28T09:42:04;0.60;99.90
20319;DHT22;10317;47.254;11.314;2023-12-28T09:44:31;0.80;99.90
20319;DHT22;10317;47.254;11.314;2023-12-28T09:46:57;1.00;99.90
20319;DHT22;10317;47.254;11.314;2023-12-28T09:49:23;1.20;99.90
20319;DHT22;10317;47.254;11.314;2023-12-28T09:51:49;1.40;99.90
20319;DHT22;10317;47.254;11.314;2023-12-28T09:54:15;1.50;99.90
20319;DHT22;10317;47.254;11.314;2023-12-28T09:56:42;1.70;99.90
20319;DHT22;10317;47.254;11.314;2023-12-28T09:59:08;1.90;99.90
20319;DHT22;10317;47.254;11.314;2023-12-28T10:01:35;2.00;99.90
20319;DHT22;10317;47.254;11.314;2023-12-28T10:04:01;2.20;99.90
20319;DHT22;10317;47.254;11.314;2023-12-28T10:06:29;2.30;99.90
20319;DHT22;10317;47.254;11.314;2023-12-28T10:08:55;2.40;99.90
20319;DHT22;10317;47.254;11.314;2023-12-28T10:11:21;2.50;99.90
20319;DHT22;10317;47.254;11.314;2023-12-28T10:13:49;2.60;99.90
20319;DHT22;10317;47.254;11.314;2023-12-28T10:16:15;2.80;99.90
20319;DHT22;10317;47.254;11.314;2023-12-28T10:18:42;3.00;99.90
20319;DHT22;10317;47.254;11.314;2023-12-28T10:21:09;3.10;99.90
20319;DHT22;10317;47.254;11.314;2023-12-28T10:23:35;3.40;99.90
20319;DHT22;10317;47.254;11.314;2023-12-28T10:26:00;3.70;99.90
20319;DHT22;10317;47.254;11.314;2023-12-28T10:28:26;4.00;99.90
20319;DHT22;10317;47.254;11.314;2023-12-28T10:30:55;4.30;99.90
20319;DHT22;10317;47.254;11.314;2023-12-28T10:33:24;4.60;99.90
20319;DHT22;10317;47.254;11.314;2023-12-28T10:35:51;4.80;99.90
20319;DHT22;10317;47.254;11.314;2023-12-28T10:38:17;5.00;99.90
20319;DHT22;10317;47.254;11.314;2023-12-28T10:40:45;5.10;99.90
20319;DHT22;10317;47.254;11.314;2023-12-28T10:43:15;5.30;99.90
20319;DHT22;10317;47.254;11.314;2023-12-28T10:45:42;5.50;99.90
20319;DHT22;10317;47.254;11.314;2023-12-28T10:48:12;5.60;99.90
20319;DHT22;10317;47.254;11.314;2023-12-28T10:50:43;5.90;99.90
20319;DHT22;10317;47.254;11.314;2023-12-28T10:55:52;6.20;99.90
20319;DHT22;10317;47.254;11.314;2023-12-28T10:58:30;6.40;99.90
20319;DHT22;10317;47.254;11.314;2023-12-28T11:01:01;6.50;99.90
20319;DHT22;10317;47.254;11.314;2023-12-28T11:03:30;6.60;99.90
20319;DHT22;10317;47.254;11.314;2023-12-28T11:06:00;6.80;99.90
20319;DHT22;10317;47.254;11.314;2023-12-28T11:08:29;7.00;99.90
20319;DHT22;10317;47.254;11.314;2023-12-28T11:10:56;7.10;99.50
20319;DHT22;10317;47.254;11.314;2023-12-28T11:13:23;7.30;96.80
20319;DHT22;10317;47.254;11.314;2023-12-28T11:15:49;7.70;99.30
20319;DHT22;10317;47.254;11.314;2023-12-28T11:18:16;7.90;99.00
20319;DHT22;10317;47.254;11.314;2023-12-28T11:20:46;8.20;99.30
20319;DHT22;10317;47.254;11.314;2023-12-28T11:23:12;8.50;96.10
20319;DHT22;10317;47.254;11.314;2023-12-28T11:25:38;8.90;96.80
20319;DHT22;10317;47.254;11.314;2023-12-28T11:28:10;9.40;96.40
20319;DHT22;10317;47.254;11.314;2023-12-28T11:30:37;9.90;97.10
20319;DHT22;10317;47.254;11.314;2023-12-28T11:33:04;10.30;96.60
20319;DHT22;10317;47.254;11.314;2023-12-28T11:35:40;10.40;93.80
20319;DHT22;10317;47.254;11.314;2023-12-28T11:38:08;10.40;93.90
20319;DHT22;10317;47.254;11.314;2023-12-28T11:40:45;10.60;93.90
20319;DHT22;10317;47.254;11.314;2023-12-28T11:43:20;10.90;93.70
20319;DHT22;10317;47.254;11.314;2023-12-28T11:45:55;11.00;90.80
20319;DHT22;10317;47.254;11.314;2023-12-28T11:48:25;11.00;90.10
20319;DHT22;10317;47.254;11.314;2023-12-28T11:50:57;11.00;90.50
20319;DHT22;10317;47.254;11.314;2023-12-28T11:53:24;11.30;90.60
20319;DHT22;10317;47.254;11.314;2023-12-28T11:55:50;11.30;88.10
20319;DHT22;10317;47.254;11.314;2023-12-28T11:58:18;11.00;88.50
20319;DHT22;10317;47.254;11.314;2023-12-28T12:00:43;10.60;85.50
20319;DHT22;10317;47.254;11.314;2023-12-28T12:03:12;10.30;87.80
20319;DHT22;10317;47.254;11.314;2023-12-28T12:05:39;9.80;88.30
20319;DHT22;10317;47.254;11.314;2023-12-28T12:08:09;9.20;88.30
20319;DHT22;10317;47.254;11.314;2023-12-28T12:10:39;8.70;88.90
20319;DHT22;10317;47.254;11.314;2023-12-28T12:13:04;8.40;91.10
20319;DHT22;10317;47.254;11.314;2023-12-28T12:15:30;8.10;91.50
20319;DHT22;10317;47.254;11.314;2023-12-28T12:17:56;8.00;91.30
20319;DHT22;10317;47.254;11.314;2023-12-28T12:20:22;7.90;91.60
20319;DHT22;10317;47.254;11.314;2023-12-28T12:22:48;7.90;91.00
20319;DHT22;10317;47.254;11.314;2023-12-28T12:25:17;7.90;90.00
20319;DHT22;10317;47.254;11.314;2023-12-28T12:27:45;7.90;91.00
20319;DHT22;10317;47.254;11.314;2023-12-28T12:30:11;7.90;87.20
20319;DHT22;10317;47.254;11.314;2023-12-28T12:32:37;7.90;89.20
20319;DHT22;10317;47.254;11.314;2023-12-28T12:35:06;7.90;90.00
20319;DHT22;10317;47.254;11.314;2023-12-28T12:37:31;8.10;90.50
20319;DHT22;10317;47.254;11.314;2023-12-28T12:39:57;8.10;90.30
20319;DHT22;10317;47.254;11.314;2023-12-28T12:42:23;8.10;90.40
20319;DHT22;10317;47.254;11.314;2023-12-28T12:44:49;8.00;90.70
20319;DHT22;10317;47.254;11.314;2023-12-28T12:47:15;8.00;91.40
20319;DHT22;10317;47.254;11.314;2023-12-28T12:49:41;7.90;91.00
20319;DHT22;10317;47.254;11.314;2023-12-28T12:52:08;8.00;91.10
20319;DHT22;10317;47.254;11.314;2023-12-28T12:54:34;7.90;91.60
20319;DHT22;10317;47.254;11.314;2023-12-28T12:57:00;7.90;92.40
20319;DHT22;10317;47.254;11.314;2023-12-28T12:59:26;8.00;91.80
20319;DHT22;10317;47.254;11.314;2023-12-28T13:01:52;8.00;91.80
20319;DHT22;10317;47.254;11.314;2023-12-28T13:04:19;8.00;91.90
20319;DHT22;10317;47.254;11.314;2023-12-28T13:06:45;8.00;92.70
20319;DHT22;10317;47.254;11.314;2023-12-28T13:09:10;8.00;92.70
20319;DHT22;10317;47.254;11.314;2023-12-28T13:11:37;8.00;92.40
20319;DHT22;10317;47.254;11.314;2023-12-28T13:14:03;7.90;92.10
20319;DHT22;10317;47.254;11.314;2023-12-28T13:16:30;7.90;92.40
20319;DHT22;10317;47.254;11.314;2023-12-28T13:18:55;7.90;92.30
20319;DHT22;10317;47.254;11.314;2023-12-28T13:21:22;7.80;92.20
20319;DHT22;10317;47.254;11.314;2023-12-28T13:23:47;7.70;93.00
20319;DHT22;10317;47.254;11.314;2023-12-28T13:26:13;7.60;93.60
20319;DHT22;10317;47.254;11.314;2023-12-28T13:28:39;7.50;94.70
20319;DHT22;10317;47.254;11.314;2023-12-28T13:31:04;7.40;95.00
20319;DHT22;10317;47.254;11.314;2023-12-28T13:33:31;7.30;94.90
20319;DHT22;10317;47.254;11.314;2023-12-28T13:35:56;7.30;95.00
20319;DHT22;10317;47.254;11.314;2023-12-28T13:38:23;7.20;94.90
20319;DHT22;10317;47.254;11.314;2023-12-28T13:40:49;7.20;95.10
20319;DHT22;10317;47.254;11.314;2023-12-28T13:43:15;7.10;95.30
20319;DHT22;10317;47.254;11.314;2023-12-28T13:45:40;7.10;95.50
20319;DHT22;10317;47.254;11.314;2023-12-28T13:48:06;7.00;95.80
20319;DHT22;10317;47.254;11.314;2023-12-28T13:50:33;6.80;96.10
20319;DHT22;10317;47.254;11.314;2023-12-28T13:52:59;6.70;95.90
20319;DHT22;10317;47.254;11.314;2023-12-28T13:55:25;6.60;96.00
20319;DHT22;10317;47.254;11.314;2023-12-28T13:57:50;6.60;96.20
20319;DHT22;10317;47.254;11.314;2023-12-28T14:00:16;6.50;96.70
20319;DHT22;10317;47.254;11.314;2023-12-28T14:02:42;6.40;96.70
20319;DHT22;10317;47.254;11.314;2023-12-28T14:05:09;6.30;97.10
20319;DHT22;10317;47.254;11.314;2023-12-28T14:07:34;6.10;97.40
20319;DHT22;10317;47.254;11.314;2023-12-28T14:10:00;6.00;97.40
20319;DHT22;10317;47.254;11.314;2023-12-28T14:12:25;6.00;97.60
20319;DHT22;10317;47.254;11.314;2023-12-28T14:14:51;5.90;97.70
20319;DHT22;10317;47.254;11.314;2023-12-28T14:17:17;5.80;97.90
20319;DHT22;10317;47.254;11.314;2023-12-28T14:19:46;5.70;98.10
20319;DHT22;10317;47.254;11.314;2023-12-28T14:22:12;5.70;98.20
20319;DHT22;10317;47.254;11.314;2023-12-28T14:24:38;5.60;98.30
20319;DHT22;10317;47.254;11.314;2023-12-28T14:27:04;5.50;98.50
20319;DHT22;10317;47.254;11.314;2023-12-28T14:29:30;5.40;98.70
20319;DHT22;10317;47.254;11.314;2023-12-28T14:31:56;5.30;98.80
20319;DHT22;10317;47.254;11.314;2023-12-28T14:34:22;5.20;99.20
20319;DHT22;10317;47.254;11.314;2023-12-28T14:36:50;5.10;99.30
20319;DHT22;10317;47.254;11.314;2023-12-28T14:39:16;5.10;99.50
20319;DHT22;10317;47.254;11.314;2023-12-28T14:41:44;5.00;99.60
20319;DHT22;10317;47.254;11.314;2023-12-28T14:44:11;4.90;99.80
20319;DHT22;10317;47.254;11.314;2023-12-28T14:46:36;4.90;99.90
20319;DHT22;10317;47.254;11.314;2023-12-28T14:49:02;4.90;99.90
20319;DHT22;10317;47.254;11.314;2023-12-28T14:51:29;4.80;99.90
20319;DHT22;10317;47.254;11.314;2023-12-28T14:53:54;4.70;99.90
20319;DHT22;10317;47.254;11.314;2023-12-28T14:56:20;4.60;99.90
20319;DHT22;10317;47.254;11.314;2023-12-28T14:58:46;4.60;99.90
20319;DHT22;10317;47.254;11.314;2023-12-28T15:01:17;4.50;99.90
20319;DHT22;10317;47.254;11.314;2023-12-28T15:03:45;4.50;99.90
20319;DHT22;10317;47.254;11.314;2023-12-28T15:06:11;4.40;99.90
20319;DHT22;10317;47.254;11.314;2023-12-28T15:08:37;4.40;99.90
20319;DHT22;10317;47.254;11.314;2023-12-28T15:11:03;4.40;99.90
20319;DHT22;10317;47.254;11.314;2023-12-28T15:13:29;4.30;99.90
20319;DHT22;10317;47.254;11.314;2023-12-28T15:15:55;4.30;99.90
20319;DHT22;10317;47.254;11.314;2023-12-28T15:18:21;4.30;99.90